createdAt,value
2023-03-27T00:00:13.532Z,97972.38
2023-03-27T00:02:42.284Z,97966.50
2023-03-27T00:05:10.843Z,97963.91
2023-03-27T00:07:41.582Z,97965.59
2023-03-27T00:10:10.659Z,97956.16
2023-03-27T00:12:39.543Z,97952.69
2023-03-27T00:15:08.524Z,97950.19
2023-03-27T00:17:37.842Z,97947.72
2023-03-27T00:20:06.976Z,97935.97
2023-03-27T00:22:36.372Z,97936.97
2023-03-27T00:25:06.704Z,97931.97
2023-03-27T00:27:35.122Z,97929.69
2023-03-27T00:30:06.829Z,97932.38
2023-03-27T00:32:36.467Z,97929.03
2023-03-27T00:35:04.958Z,97923.09
2023-03-27T00:37:33.744Z,97916.28
2023-03-27T00:40:02.133Z,97916.16
2023-03-27T00:42:32.023Z,97897.31
2023-03-27T00:45:00.539Z,97904.25
2023-03-27T00:47:33.290Z,97901.75
2023-03-27T00:50:03.747Z,97900.84
2023-03-27T00:52:32.602Z,97889.69
2023-03-27T00:55:02.335Z,97887.09
2023-03-27T00:57:32.426Z,97878.00
2023-03-27T01:00:10.523Z,97879.72
2023-03-27T01:02:39.139Z,97879.81
2023-03-27T01:05:09.414Z,97880.00
2023-03-27T01:07:39.684Z,97881.69
2023-03-27T01:10:12.704Z,97875.81
2023-03-27T01:12:47.347Z,97873.41
2023-03-27T01:15:31.655Z,97873.41
2023-03-27T01:18:08.627Z,97867.59
2023-03-27T01:20:47.898Z,97870.06
2023-03-27T01:23:35.489Z,97859.75
2023-03-27T01:26:18.615Z,97865.06
2023-03-27T01:29:12.094Z,97863.50
2023-03-27T01:31:51.721Z,97855.16
2023-03-27T01:34:31.662Z,97849.19
2023-03-27T01:37:09.563Z,97846.66
2023-03-27T01:39:49.317Z,97844.09
2023-03-27T01:42:20.846Z,97850.00
2023-03-27T01:44:52.465Z,97856.06
2023-03-27T01:47:26.461Z,97860.31
2023-03-27T01:49:58.483Z,97864.56
2023-03-27T01:52:30.970Z,97867.06
2023-03-27T01:55:05.363Z,97861.97
2023-03-27T01:57:49.212Z,97858.63
2023-03-27T02:00:23.778Z,97850.28
2023-03-27T02:03:09.910Z,97859.00
2023-03-27T02:05:42.296Z,97844.09
2023-03-27T02:08:12.919Z,97832.09
2023-03-27T02:10:49.139Z,97831.16
2023-03-27T02:13:21.799Z,97840.59
2023-03-27T02:15:52.210Z,97838.03
2023-03-27T02:18:23.873Z,97843.03
2023-03-27T02:20:52.403Z,97847.22
2023-03-27T02:23:23.112Z,97848.00
2023-03-27T02:25:53.243Z,97839.63
2023-03-27T02:28:34.273Z,97838.84
2023-03-27T02:31:33.276Z,97832.06
2023-03-27T02:34:03.415Z,97832.84
2023-03-27T02:36:40.966Z,97832.91
2023-03-27T02:39:14.323Z,97831.09
2023-03-27T02:41:48.233Z,97825.94
2023-03-27T02:44:32.678Z,97824.22
2023-03-27T02:47:08.177Z,97819.91
2023-03-27T02:49:41.037Z,97809.75
2023-03-27T02:52:11.629Z,97811.41
2023-03-27T02:54:42.353Z,97811.41
2023-03-27T02:57:14.487Z,97805.44
2023-03-27T03:00:25.656Z,97802.06
2023-03-27T03:03:09.046Z,97794.47
2023-03-27T03:05:38.247Z,97796.13
2023-03-27T03:08:10.608Z,97793.66
2023-03-27T03:10:44.615Z,97783.53
2023-03-27T03:13:16.434Z,97784.25
2023-03-27T03:15:46.649Z,97780.81
2023-03-27T03:18:16.282Z,97785.84
2023-03-27T03:20:46.127Z,97783.41
2023-03-27T03:23:14.585Z,97772.44
2023-03-27T03:25:44.939Z,97777.41
2023-03-27T03:28:13.576Z,97777.34
2023-03-27T03:30:45.893Z,97770.41
2023-03-27T03:33:15.466Z,97765.25
2023-03-27T03:35:47.148Z,97760.94
2023-03-27T03:38:26.791Z,97765.19
2023-03-27T03:40:57.392Z,97772.09
2023-03-27T03:43:27.302Z,97781.53
2023-03-27T03:45:58.841Z,97784.09
2023-03-27T03:48:27.537Z,97774.75
2023-03-27T03:50:56.088Z,97772.16
2023-03-27T03:53:24.904Z,97765.31
2023-03-27T03:55:54.109Z,97756.16
2023-03-27T03:58:34.333Z,97757.88
2023-03-27T04:01:09.305Z,97748.56
2023-03-27T04:03:44.415Z,97752.06
2023-03-27T04:06:12.891Z,97746.13
2023-03-27T04:08:41.444Z,97739.38
2023-03-27T04:11:27.359Z,97739.34
2023-03-27T04:14:07.375Z,97742.03
2023-03-27T04:16:43.035Z,97743.84
2023-03-27T04:19:22.555Z,97750.53
2023-03-27T04:22:02.356Z,97752.97
2023-03-27T04:24:34.949Z,97757.19
2023-03-27T04:27:03.492Z,97767.31
2023-03-27T04:29:43.685Z,97769.06
2023-03-27T04:32:27.025Z,97767.38
2023-03-27T04:35:06.940Z,97760.63
2023-03-27T04:37:47.497Z,97755.56
2023-03-27T04:40:35.064Z,97755.44
2023-03-27T04:43:04.149Z,97748.72
2023-03-27T04:45:35.028Z,97743.63
2023-03-27T04:48:07.887Z,97752.16
2023-03-27T04:50:37.583Z,97751.25
2023-03-27T04:53:06.831Z,97754.53
2023-03-27T04:55:40.728Z,97765.50
2023-03-27T04:58:10.591Z,97772.31
2023-03-27T05:00:39.365Z,97772.41
2023-03-27T05:03:14.002Z,97778.28
2023-03-27T05:06:08.966Z,97777.53
2023-03-27T05:08:39.273Z,97780.13
2023-03-27T05:11:07.996Z,97782.72
2023-03-27T05:13:44.542Z,97768.41
2023-03-27T05:16:17.940Z,97767.59
2023-03-27T05:18:51.810Z,97775.13
2023-03-27T05:21:20.858Z,97781.03
2023-03-27T05:23:49.372Z,97774.28
2023-03-27T05:26:24.279Z,97781.03
2023-03-27T05:28:58.818Z,97783.41
2023-03-27T05:31:28.359Z,97781.53
2023-03-27T05:34:19.416Z,97785.78
2023-03-27T05:36:49.432Z,97782.28
2023-03-27T05:39:18.592Z,97779.63
2023-03-27T05:41:48.849Z,97784.56
2023-03-27T05:44:25.758Z,97791.22
2023-03-27T05:46:54.265Z,97789.53
2023-03-27T05:49:33.539Z,97791.19
2023-03-27T05:52:10.921Z,97791.00
2023-03-27T05:54:39.507Z,97797.00
2023-03-27T05:57:12.103Z,97792.91
2023-03-27T05:59:42.400Z,97790.31
2023-03-27T06:02:21.464Z,97793.66
2023-03-27T06:05:04.786Z,97797.06
2023-03-27T06:07:42.417Z,97795.25
2023-03-27T06:10:14.448Z,97790.16
2023-03-27T06:13:00.483Z,97796.03
2023-03-27T06:15:36.617Z,97793.34
2023-03-27T06:18:25.443Z,97798.38
2023-03-27T06:20:55.680Z,97795.06
2023-03-27T06:23:24.666Z,97796.69
2023-03-27T06:25:53.794Z,97805.13
2023-03-27T06:28:25.590Z,97804.19
2023-03-27T06:30:54.439Z,97805.81
2023-03-27T06:33:32.849Z,97806.50
2023-03-27T06:36:07.478Z,97804.81
2023-03-27T06:38:37.639Z,97808.97
2023-03-27T06:41:07.353Z,97806.31
2023-03-27T06:43:46.969Z,97807.91
2023-03-27T06:46:42.608Z,97813.81
2023-03-27T06:49:23.490Z,97811.19
2023-03-27T06:51:54.177Z,97814.53
2023-03-27T06:54:24.449Z,97813.59
2023-03-27T06:56:55.619Z,97809.25
2023-03-27T06:59:24.729Z,97814.19
2023-03-27T07:01:58.963Z,97820.06
2023-03-27T07:04:28.019Z,97812.25
2023-03-27T07:07:19.575Z,97809.50
2023-03-27T07:09:49.841Z,97810.16
2023-03-27T07:12:23.449Z,97815.19
2023-03-27T07:14:52.080Z,97821.97
2023-03-27T07:17:20.374Z,97820.97
2023-03-27T07:19:54.331Z,97820.00
2023-03-27T07:22:27.864Z,97819.84
2023-03-27T07:24:58.679Z,97821.50
2023-03-27T07:27:28.615Z,97817.13
2023-03-27T07:30:01.743Z,97821.28
2023-03-27T07:32:37.248Z,97816.94
2023-03-27T07:35:08.794Z,97820.31
2023-03-27T07:37:59.083Z,97824.34
2023-03-27T07:40:40.545Z,97827.53
2023-03-27T07:43:35.607Z,97834.03
2023-03-27T07:46:06.540Z,97830.50
2023-03-27T07:48:36.082Z,97828.66
2023-03-27T07:51:13.262Z,97842.91
2023-03-27T07:53:44.758Z,97837.69
2023-03-27T07:56:26.691Z,97833.25
2023-03-27T07:59:06.194Z,97841.59
2023-03-27T08:01:35.155Z,97833.88
2023-03-27T08:04:06.069Z,97844.00
2023-03-27T08:06:36.320Z,97835.50
2023-03-27T08:09:10.788Z,97834.66
2023-03-27T08:11:41.377Z,97831.88
2023-03-27T08:14:10.226Z,97836.88
2023-03-27T08:16:40.536Z,97838.50
2023-03-27T08:19:11.441Z,97836.03
2023-03-27T08:21:45.147Z,97836.72
2023-03-27T08:24:15.063Z,97831.47
2023-03-27T08:26:55.550Z,97839.88
2023-03-27T08:29:24.973Z,97835.66
2023-03-27T08:31:53.312Z,97832.31
2023-03-27T08:34:21.772Z,97837.38
2023-03-27T08:36:54.726Z,97837.34
2023-03-27T08:39:31.124Z,97844.94
2023-03-27T08:42:05.386Z,97840.53
2023-03-27T08:44:37.099Z,97849.09
2023-03-27T08:47:15.824Z,97849.28
2023-03-27T08:49:53.101Z,97850.19
2023-03-27T08:52:27.739Z,97846.72
2023-03-27T08:55:01.321Z,97849.28
2023-03-27T08:57:38.177Z,97853.56
2023-03-27T09:00:16.975Z,97855.31
2023-03-27T09:02:48.785Z,97847.63
2023-03-27T09:05:19.691Z,97854.59
2023-03-27T09:07:50.210Z,97857.22
2023-03-27T09:10:31.538Z,97854.59
2023-03-27T09:13:08.203Z,97856.38
2023-03-27T09:15:41.392Z,97868.22
2023-03-27T09:18:12.486Z,97863.31
2023-03-27T09:20:45.353Z,97855.72
2023-03-27T09:23:19.140Z,97856.75
2023-03-27T09:26:04.032Z,97863.50
2023-03-27T09:29:01.647Z,97864.41
2023-03-27T09:31:36.596Z,97871.41
2023-03-27T09:34:13.935Z,97864.78
2023-03-27T09:36:42.934Z,97875.69
2023-03-27T09:39:17.296Z,97873.06
2023-03-27T09:41:49.910Z,97870.44
2023-03-27T09:44:25.722Z,97874.63
2023-03-27T09:47:02.668Z,97884.66
2023-03-27T09:49:34.237Z,97881.13
2023-03-27T09:52:08.504Z,97886.22
2023-03-27T09:54:53.054Z,97886.78
2023-03-27T09:57:34.152Z,97893.38
2023-03-27T10:00:13.505Z,97907.81
2023-03-27T10:03:00.739Z,97914.78
2023-03-27T10:05:30.551Z,97915.84
2023-03-27T10:07:59.592Z,97927.63
2023-03-27T10:10:46.015Z,97941.28
2023-03-27T10:13:29.436Z,97939.88
2023-03-27T10:16:01.599Z,97961.28
2023-03-27T10:18:42.437Z,97956.63
2023-03-27T10:21:20.997Z,97961.41
2023-03-27T10:23:51.802Z,97970.63
2023-03-27T10:26:38.649Z,98000.06
2023-03-27T10:29:22.567Z,97999.88
2023-03-27T10:31:52.751Z,98019.97
2023-03-27T10:34:34.604Z,98024.59
2023-03-27T10:37:29.423Z,98040.88
2023-03-27T10:40:17.846Z,98069.94
2023-03-27T10:42:49.417Z,98077.88
2023-03-27T10:45:21.058Z,98083.91
2023-03-27T10:47:54.536Z,98083.13
2023-03-27T10:50:27.899Z,98095.00
2023-03-27T10:53:01.441Z,98107.13
2023-03-27T10:55:48.778Z,98097.28
2023-03-27T10:58:25.540Z,98098.25
2023-03-27T11:01:00.280Z,98094.06
2023-03-27T11:03:33.375Z,98101.69
2023-03-27T11:06:09.129Z,98113.72
2023-03-27T11:08:48.215Z,98130.75
2023-03-27T11:11:21.063Z,98129.19
2023-03-27T11:13:53.562Z,98133.28
2023-03-27T11:16:25.138Z,98158.72
2023-03-27T11:19:13.997Z,98152.88
2023-03-27T11:22:05.208Z,98168.31
2023-03-27T11:24:39.747Z,98182.84
2023-03-27T11:27:15.975Z,98196.53
2023-03-27T11:29:48.460Z,98197.44
2023-03-27T11:32:21.827Z,98189.94
2023-03-27T11:35:00.904Z,98204.63
2023-03-27T11:37:46.670Z,98226.72
2023-03-27T11:40:20.461Z,98208.13
2023-03-27T11:42:52.363Z,98218.28
2023-03-27T11:45:24.414Z,98226.88
2023-03-27T11:48:05.359Z,98217.69
2023-03-27T11:50:46.769Z,98239.63
2023-03-27T11:53:25.779Z,98254.03
2023-03-27T11:56:22.370Z,98277.75
2023-03-27T11:59:09.480Z,98303.22
2023-03-27T12:01:42.181Z,98312.56
2023-03-27T12:04:20.496Z,98335.47
2023-03-27T12:07:08.217Z,98367.75
2023-03-27T12:09:52.703Z,98367.84
2023-03-27T12:12:39.625Z,98379.72
2023-03-27T12:15:24.315Z,98384.84
2023-03-27T12:17:58.512Z,98396.72
2023-03-27T12:20:52.546Z,98398.44
2023-03-27T12:23:28.535Z,98400.19
2023-03-27T12:26:33.635Z,98394.31
2023-03-27T12:29:30.323Z,98400.19
2023-03-27T12:32:17.510Z,98396.81
2023-03-27T12:34:53.500Z,98418.81
2023-03-27T12:37:28.133Z,98410.41
2023-03-27T12:39:59.242Z,98422.22
2023-03-27T12:42:43.562Z,98444.97
2023-03-27T12:45:18.233Z,98446.69
2023-03-27T12:48:01.735Z,98445.84
2023-03-27T12:50:37.301Z,98455.16
2023-03-27T12:53:07.437Z,98488.94
2023-03-27T12:55:41.231Z,98495.69
2023-03-27T12:58:33.191Z,98494.91
2023-03-27T13:01:13.997Z,98506.69
2023-03-27T13:04:13.376Z,98521.91
2023-03-27T13:06:51.020Z,98526.97
2023-03-27T13:09:29.034Z,98548.06
2023-03-27T13:12:14.427Z,98557.38
2023-03-27T13:14:52.244Z,98550.56
2023-03-27T13:17:38.698Z,98566.59
2023-03-27T13:20:16.880Z,98568.28
2023-03-27T13:22:58.216Z,98565.78
2023-03-27T13:25:41.279Z,98583.47
2023-03-27T13:28:21.690Z,98583.47
2023-03-27T13:31:01.377Z,98606.25
2023-03-27T13:33:41.585Z,98607.94
2023-03-27T13:36:14.641Z,98613.03
2023-03-27T13:38:54.627Z,98616.38
2023-03-27T13:41:34.306Z,98631.53
2023-03-27T13:44:05.235Z,98638.31
2023-03-27T13:46:46.402Z,98661.06
2023-03-27T13:49:28.078Z,98665.28
2023-03-27T13:52:19.234Z,98688.03
2023-03-27T13:55:05.467Z,98690.56
2023-03-27T13:58:03.233Z,98707.38
2023-03-27T14:00:43.065Z,98703.94
2023-03-27T14:03:26.757Z,98711.50
2023-03-27T14:06:20.437Z,98717.44
2023-03-27T14:08:56.659Z,98728.38
2023-03-27T14:11:42.443Z,98725.84
2023-03-27T14:14:37.487Z,98735.13
2023-03-27T14:17:16.595Z,98728.41
2023-03-27T14:20:01.936Z,98747.00
2023-03-27T14:22:41.426Z,98752.91
2023-03-27T14:25:13.706Z,98756.25
2023-03-27T14:27:51.760Z,98752.91
2023-03-27T14:30:22.253Z,98758.00
2023-03-27T14:33:06.799Z,98760.50
2023-03-27T14:35:38.759Z,98771.47
2023-03-27T14:38:23.501Z,98783.28
2023-03-27T14:40:55.090Z,98789.22
2023-03-27T14:43:36.718Z,98792.63
2023-03-27T14:46:07.275Z,98796.91
2023-03-27T14:48:38.116Z,98812.13
2023-03-27T14:51:10.696Z,98807.06
2023-03-27T14:53:44.868Z,98814.66
2023-03-27T14:56:23.569Z,98812.09
2023-03-27T14:59:05.368Z,98815.47
2023-03-27T15:01:52.493Z,98821.34
2023-03-27T15:04:21.350Z,98823.94
2023-03-27T15:06:50.374Z,98825.59
2023-03-27T15:09:31.259Z,98839.03
2023-03-27T15:12:11.153Z,98837.34
2023-03-27T15:14:41.546Z,98844.09
2023-03-27T15:17:15.114Z,98852.50
2023-03-27T15:19:48.771Z,98860.06
2023-03-27T15:22:23.649Z,98860.84
2023-03-27T15:24:57.290Z,98850.66
2023-03-27T15:27:29.151Z,98872.59
2023-03-27T15:29:59.846Z,98881.84
2023-03-27T15:32:30.868Z,98888.59
2023-03-27T15:35:00.348Z,98880.16
2023-03-27T15:37:30.946Z,98902.06
2023-03-27T15:40:04.656Z,98897.88
2023-03-27T15:42:45.882Z,98908.88
2023-03-27T15:45:16.954Z,98910.59
2023-03-27T15:47:46.806Z,98921.56
2023-03-27T15:50:18.504Z,98911.47
2023-03-27T15:52:50.308Z,98918.19
2023-03-27T15:55:29.690Z,98923.31
2023-03-27T15:58:00.288Z,98925.03
2023-03-27T16:00:28.983Z,98941.81
2023-03-27T16:02:57.613Z,98946.09
2023-03-27T16:05:26.449Z,98941.06
2023-03-27T16:07:54.785Z,98940.22
2023-03-27T16:10:30.296Z,98937.69
2023-03-27T16:13:03.030Z,98953.72
2023-03-27T16:15:33.012Z,98962.09
2023-03-27T16:18:04.186Z,98955.31
2023-03-27T16:20:34.750Z,98964.59
2023-03-27T16:23:04.378Z,98961.13
2023-03-27T16:25:33.097Z,98982.19
2023-03-27T16:28:03.760Z,98968.59
2023-03-27T16:30:34.719Z,98966.94
2023-03-27T16:33:15.315Z,98977.00
2023-03-27T16:35:45.708Z,98976.19
2023-03-27T16:38:14.623Z,98977.03
2023-03-27T16:40:43.154Z,98981.16
2023-03-27T16:43:12.974Z,98976.03
2023-03-27T16:45:41.658Z,98973.44
2023-03-27T16:48:11.685Z,98986.97
2023-03-27T16:50:40.466Z,99006.22
2023-03-27T16:53:08.798Z,99011.28
2023-03-27T16:55:37.292Z,99008.69
2023-03-27T16:58:05.635Z,99014.59
2023-03-27T17:00:35.586Z,99013.75
2023-03-27T17:03:04.055Z,99017.06
2023-03-27T17:05:34.513Z,99022.13
2023-03-27T17:08:05.301Z,99030.53
2023-03-27T17:10:36.013Z,99032.09
2023-03-27T17:13:04.324Z,99038.72
2023-03-27T17:15:36.393Z,99031.13
2023-03-27T17:18:06.602Z,99037.00
2023-03-27T17:20:36.033Z,99042.00
2023-03-27T17:23:04.816Z,99051.22
2023-03-27T17:25:33.451Z,99054.56
2023-03-27T17:28:01.918Z,99057.09
2023-03-27T17:30:38.599Z,99063.91
2023-03-27T17:33:11.537Z,99065.56
2023-03-27T17:35:40.814Z,99078.16
2023-03-27T17:38:10.697Z,99080.75
2023-03-27T17:40:40.433Z,99075.56
2023-03-27T17:43:08.865Z,99088.16
2023-03-27T17:45:42.838Z,99088.94
2023-03-27T17:48:12.698Z,99091.41
2023-03-27T17:50:41.274Z,99090.56
2023-03-27T17:53:09.717Z,99098.13
2023-03-27T17:55:38.612Z,99096.53
2023-03-27T17:58:09.957Z,99103.25
2023-03-27T18:00:40.109Z,99107.44
2023-03-27T18:03:09.026Z,99107.44
2023-03-27T18:05:39.296Z,99107.38
2023-03-27T18:08:08.101Z,99121.72
2023-03-27T18:10:38.342Z,99122.53
2023-03-27T18:13:07.780Z,99127.69
2023-03-27T18:15:36.180Z,99129.38
2023-03-27T18:18:04.824Z,99145.38
2023-03-27T18:20:33.366Z,99146.97
2023-03-27T18:23:03.260Z,99152.84
2023-03-27T18:25:31.690Z,99159.66
2023-03-27T18:28:00.288Z,99157.16
2023-03-27T18:30:29.938Z,99158.00
2023-03-27T18:33:00.959Z,99158.75
2023-03-27T18:35:29.583Z,99161.19
2023-03-27T18:37:58.584Z,99165.38
2023-03-27T18:40:28.418Z,99173.75
2023-03-27T18:42:56.982Z,99179.69
2023-03-27T18:45:25.595Z,99178.81
2023-03-27T18:47:54.298Z,99183.81
2023-03-27T18:50:22.633Z,99184.59
2023-03-27T18:52:51.237Z,99185.44
2023-03-27T18:55:19.834Z,99189.66
2023-03-27T18:57:49.771Z,99178.69
2023-03-27T19:00:20.730Z,99182.75
2023-03-27T19:02:51.495Z,99182.75
2023-03-27T19:05:20.035Z,99182.75
2023-03-27T19:07:48.498Z,99188.66
2023-03-27T19:10:17.003Z,99191.06
2023-03-27T19:12:52.571Z,99193.63
2023-03-27T19:15:47.016Z,99192.91
2023-03-27T19:18:30.167Z,99192.03
2023-03-27T19:21:15.591Z,99197.88
2023-03-27T19:23:47.336Z,99210.50
2023-03-27T19:26:19.514Z,99207.97
2023-03-27T19:28:49.843Z,99210.56
2023-03-27T19:31:18.240Z,99206.25
2023-03-27T19:33:47.028Z,99209.69
2023-03-27T19:36:15.882Z,99213.72
2023-03-27T19:38:44.528Z,99213.00
2023-03-27T19:41:12.952Z,99209.47
2023-03-27T19:43:41.488Z,99208.47
2023-03-27T19:46:16.134Z,99214.41
2023-03-27T19:48:45.534Z,99207.72
2023-03-27T19:51:33.925Z,99217.03
2023-03-27T19:54:02.460Z,99212.06
2023-03-27T19:56:30.932Z,99219.56
2023-03-27T19:58:59.825Z,99219.50
2023-03-27T20:01:32.012Z,99221.16
2023-03-27T20:04:01.097Z,99224.47
2023-03-27T20:06:29.488Z,99224.41
2023-03-27T20:09:00.966Z,99233.69
2023-03-27T20:11:29.550Z,99227.94
2023-03-27T20:13:57.943Z,99229.59
2023-03-27T20:16:27.840Z,99235.56
2023-03-27T20:19:04.696Z,99235.44
2023-03-27T20:21:35.269Z,99239.53
2023-03-27T20:24:10.122Z,99240.41
2023-03-27T20:26:43.118Z,99235.28
2023-03-27T20:29:19.533Z,99239.38
2023-03-27T20:31:48.700Z,99239.25
2023-03-27T20:34:22.961Z,99249.34
2023-03-27T20:36:53.646Z,99247.69
2023-03-27T20:39:33.657Z,99247.69
2023-03-27T20:42:02.935Z,99244.28
2023-03-27T20:44:36.315Z,99251.81
2023-03-27T20:47:11.188Z,99251.84
2023-03-27T20:49:43.035Z,99247.66
2023-03-27T20:52:12.774Z,99256.03
2023-03-27T20:54:41.422Z,99263.59
2023-03-27T20:57:12.541Z,99259.38
2023-03-27T20:59:41.064Z,99258.63
2023-03-27T21:02:15.496Z,99259.56
2023-03-27T21:04:46.934Z,99258.81
2023-03-27T21:07:16.244Z,99267.22
2023-03-27T21:09:47.705Z,99255.31
2023-03-27T21:12:16.310Z,99269.50
2023-03-27T21:14:44.779Z,99266.13
2023-03-27T21:17:13.965Z,99276.22
2023-03-27T21:19:42.417Z,99281.28
2023-03-27T21:22:12.342Z,99275.44
2023-03-27T21:24:41.957Z,99281.31
2023-03-27T21:27:10.655Z,99276.22
2023-03-27T21:29:39.162Z,99271.94
2023-03-27T21:32:08.176Z,99272.66
2023-03-27T21:34:36.705Z,99273.38
2023-03-27T21:37:05.324Z,99271.88
2023-03-27T21:39:35.314Z,99264.31
2023-03-27T21:42:04.056Z,99268.53
2023-03-27T21:44:32.436Z,99274.38
2023-03-27T21:47:00.916Z,99276.09
2023-03-27T21:49:29.381Z,99276.81
2023-03-27T21:51:57.845Z,99279.34
2023-03-27T21:54:26.263Z,99279.25
2023-03-27T21:56:56.357Z,99278.28
2023-03-27T21:59:25.370Z,99284.09
2023-03-27T22:01:53.872Z,99290.91
2023-03-27T22:04:22.372Z,99280.94
2023-03-27T22:06:51.004Z,99287.69
2023-03-27T22:09:19.428Z,99290.91
2023-03-27T22:11:47.872Z,99295.16
2023-03-27T22:14:17.900Z,99294.22
2023-03-27T22:16:46.515Z,99304.28
2023-03-27T22:19:14.930Z,99294.22
2023-03-27T22:21:43.397Z,99288.38
2023-03-27T22:24:11.863Z,99295.06
2023-03-27T22:26:40.935Z,99295.06
2023-03-27T22:29:09.433Z,99295.06
2023-03-27T22:31:39.509Z,99297.63
2023-03-27T22:34:08.074Z,99293.44
2023-03-27T22:36:36.457Z,99296.75
2023-03-27T22:39:05.205Z,99300.81
2023-03-27T22:41:33.652Z,99294.88
2023-03-27T22:44:02.411Z,99298.31
2023-03-27T22:46:30.800Z,99298.47
2023-03-27T22:49:00.947Z,99299.16
2023-03-27T22:51:30.441Z,99309.25
2023-03-27T22:53:59.032Z,99308.38
2023-03-27T22:56:27.502Z,99309.06
2023-03-27T22:58:55.960Z,99305.69
2023-03-27T23:01:24.522Z,99313.34
2023-03-27T23:03:53.151Z,99320.97
2023-03-27T23:06:24.622Z,99318.47
2023-03-27T23:08:53.146Z,99320.97
2023-03-27T23:11:21.628Z,99318.38
2023-03-27T23:13:50.671Z,99327.66
2023-03-27T23:16:19.290Z,99332.56
2023-03-27T23:18:47.698Z,99337.47
2023-03-27T23:21:16.949Z,99337.59
2023-03-27T23:23:46.855Z,99340.88
2023-03-27T23:26:15.510Z,99337.25
2023-03-27T23:28:44.117Z,99342.34
2023-03-27T23:31:15.040Z,99350.81
2023-03-27T23:33:44.908Z,99347.47
2023-03-27T23:36:15.080Z,99352.53
2023-03-27T23:38:43.786Z,99354.97
2023-03-27T23:41:14.665Z,99359.09
2023-03-27T23:43:43.324Z,99353.13
2023-03-27T23:46:11.791Z,99363.22
2023-03-27T23:48:40.932Z,99364.09
2023-03-27T23:51:10.017Z,99363.13
2023-03-27T23:53:38.815Z,99364.56
2023-03-27T23:56:07.503Z,99361.63
2023-03-27T23:58:37.541Z,99365.56
